Time;durP1;ratioP1;P1;durP2;ratioP2;P2;SDS_P1;SDS_P2;PMS_P1;PMS_P2;Temp;Humidity;BMP_temperature;BMP_pressure;BME280_temperature;BME280_humidity;BME280_pressure;Samples;Min_cycle;Max_cycle;Signal;HPM_P1;HPM_P2
2021/12/25 00:02:53;;;;;;;12.85;6.72;;;6.80;99.90;;;;;;10283963;28;20085;-58
2021/12/25 00:07:55;;;;;;;15.02;6.55;;;6.80;99.90;;;;;;10288729;28;20134;-59
2021/12/25 00:12:57;;;;;;;12.57;5.55;;;6.80;99.90;;;;;;10283098;28;20082;-58
2021/12/25 00:17:59;;;;;;;13.23;6.15;;;6.80;99.90;;;;;;10281863;28;20674;-58
2021/12/25 00:23:04;;;;;;;16.23;7.38;;;6.70;99.90;;;;;;10287614;28;20137;-59
2021/12/25 00:28:24;;;;;;;14.82;6.15;;;6.80;99.90;;;;;;10290890;28;20454;-60
2021/12/25 00:38:45;;;;;;;13.27;6.05;;;6.80;99.90;;;;;;10285258;28;20046;-59
2021/12/25 00:43:48;;;;;;;13.10;6.00;;;6.80;99.90;;;;;;10296792;28;20132;-58
2021/12/25 00:48:49;;;;;;;12.90;6.38;;;6.80;99.90;;;;;;10287258;28;20120;-59
2021/12/25 00:53:51;;;;;;;9.65;5.55;;;6.90;99.90;;;;;;10294390;28;20066;-59
2021/12/25 00:58:53;;;;;;;10.88;5.75;;;6.80;99.90;;;;;;10289599;28;20077;-58
2021/12/25 01:03:54;;;;;;;14.00;6.13;;;6.80;99.90;;;;;;10283570;28;20134;-59
2021/12/25 01:08:56;;;;;;;13.02;5.32;;;6.80;99.90;;;;;;10293524;28;20074;-59
2021/12/25 01:14:06;;;;;;;12.30;5.32;;;6.80;99.90;;;;;;10290080;28;20055;-60
2021/12/25 01:24:44;;;;;;;10.13;5.60;;;6.80;99.90;;;;;;10292931;28;20046;-61
2021/12/25 01:30:01;;;;;;;12.32;5.93;;;6.70;99.90;;;;;;10289164;28;20152;-58
2021/12/25 01:35:24;;;;;;;11.82;5.82;;;6.70;99.90;;;;;;10294857;28;20051;-59
2021/12/25 01:51:02;;;;;;;9.50;5.03;;;6.60;99.90;;;;;;10286595;28;20042;-60
2021/12/25 01:56:05;;;;;;;7.53;4.32;;;6.60;99.90;;;;;;10272753;28;20335;-60
2021/12/25 02:01:09;;;;;;;12.32;5.32;;;6.50;99.90;;;;;;10274708;28;20214;-59
2021/12/25 02:06:13;;;;;;;10.20;5.05;;;6.50;99.90;;;;;;10286660;28;20085;-59
2021/12/25 02:11:15;;;;;;;12.13;5.53;;;6.50;99.90;;;;;;10288009;28;20058;-59
2021/12/25 02:16:20;;;;;;;11.10;5.28;;;6.40;99.90;;;;;;10274700;28;20098;-59
2021/12/25 02:21:26;;;;;;;10.98;5.10;;;6.40;99.90;;;;;;10283939;28;20046;-59
2021/12/25 02:26:28;;;;;;;14.65;5.40;;;6.40;99.90;;;;;;10287948;28;20078;-59
2021/12/25 02:31:30;;;;;;;11.95;5.55;;;6.40;99.90;;;;;;10285432;28;20046;-59
2021/12/25 02:36:32;;;;;;;13.98;6.60;;;6.50;99.90;;;;;;10292161;28;20058;-60
2021/12/25 02:41:34;;;;;;;13.80;6.03;;;6.50;99.90;;;;;;10287283;28;20056;-61
2021/12/25 02:46:35;;;;;;;11.68;6.22;;;6.50;99.90;;;;;;10283897;28;20084;-59
2021/12/25 02:51:37;;;;;;;9.70;4.55;;;6.50;99.90;;;;;;10286144;28;20050;-58
2021/12/25 02:56:39;;;;;;;9.52;4.97;;;6.50;99.90;;;;;;10285924;28;20081;-59
2021/12/25 03:01:42;;;;;;;9.75;5.70;;;6.50;99.90;;;;;;10286086;28;20492;-59
2021/12/25 03:06:43;;;;;;;11.77;6.45;;;6.50;99.90;;;;;;10283017;28;20041;-59
2021/12/25 03:11:45;;;;;;;12.77;6.07;;;6.50;99.90;;;;;;10287157;28;20124;-59
2021/12/25 03:16:47;;;;;;;10.27;5.55;;;6.50;99.90;;;;;;10285398;28;20458;-58
2021/12/25 03:21:48;;;;;;;13.82;5.80;;;6.40;99.90;;;;;;10285589;28;20057;-60
2021/12/25 03:26:53;;;;;;;12.80;5.93;;;6.40;99.90;;;;;;10282657;28;20098;-59
2021/12/25 03:31:54;;;;;;;12.65;4.85;;;6.30;99.90;;;;;;10266218;28;20569;-60
2021/12/25 03:36:56;;;;;;;7.55;4.25;;;6.30;99.90;;;;;;10281680;28;20070;-60
2021/12/25 03:41:58;;;;;;;12.00;4.78;;;6.10;99.90;;;;;;10285505;28;20078;-60
2021/12/25 03:47:10;;;;;;;6.25;3.00;;;6.00;99.90;;;;;;10283537;28;20383;-59
2021/12/25 03:57:43;;;;;;;10.90;3.53;;;5.90;99.90;;;;;;10284561;28;20070;-59
2021/12/25 04:02:57;;;;;;;8.77;3.63;;;5.80;99.90;;;;;;10285793;28;20211;-59
2021/12/25 04:08:08;;;;;;;6.85;2.53;;;5.70;99.90;;;;;;10278747;28;20432;-61
2021/12/25 04:13:13;;;;;;;8.68;2.53;;;5.70;99.90;;;;;;10283589;28;20074;-59
2021/12/25 04:18:15;;;;;;;6.15;2.15;;;5.60;99.90;;;;;;10286489;28;20464;-59
2021/12/25 04:23:23;;;;;;;8.05;2.17;;;5.60;99.90;;;;;;10283825;28;20187;-59
2021/12/25 04:29:20;;;;;;;5.70;1.95;;;5.60;99.90;;;;;;10279308;28;20090;-59
2021/12/25 05:05:53;;;;;;;8.77;3.08;;;5.20;99.90;;;;;;10279892;28;20180;-60
2021/12/25 05:10:57;;;;;;;6.00;2.10;;;5.10;99.90;;;;;;10293951;28;20078;-56
2021/12/25 05:16:00;;;;;;;6.00;2.28;;;5.00;99.90;;;;;;10292702;28;20086;-57
2021/12/25 05:21:02;;;;;;;6.78;2.58;;;5.00;99.90;;;;;;10289436;28;20054;-56
2021/12/25 05:26:04;;;;;;;6.15;2.17;;;4.90;99.90;;;;;;10289687;28;20082;-57
2021/12/25 05:31:07;;;;;;;6.43;2.30;;;4.80;99.90;;;;;;10290174;28;20580;-56
2021/12/25 05:36:09;;;;;;;4.18;2.10;;;4.80;99.90;;;;;;10288210;28;20112;-57
2021/12/25 05:41:12;;;;;;;3.85;1.73;;;4.70;99.90;;;;;;10289507;28;20096;-57
2021/12/25 05:46:13;;;;;;;3.65;1.45;;;4.70;99.90;;;;;;10292611;28;20057;-56
2021/12/25 05:51:18;;;;;;;2.17;0.85;;;4.60;99.90;;;;;;10291138;28;20138;-56
2021/12/25 05:56:19;;;;;;;7.00;1.08;;;4.50;99.90;;;;;;10288601;28;20081;-56
2021/12/25 06:01:21;;;;;;;2.90;1.08;;;4.40;99.90;;;;;;10290026;28;20842;-57
2021/12/25 06:06:24;;;;;;;2.58;1.10;;;4.40;99.90;;;;;;10284463;28;20113;-55
2021/12/25 06:11:27;;;;;;;1.88;0.70;;;4.20;99.90;;;;;;10288257;28;20057;-57
2021/12/25 06:16:30;;;;;;;2.05;1.08;;;4.20;99.90;;;;;;10285882;28;20100;-56
2021/12/25 06:21:32;;;;;;;1.90;0.77;;;4.10;99.90;;;;;;10283503;28;20038;-55
2021/12/25 06:26:38;;;;;;;2.00;0.80;;;4.00;99.90;;;;;;10287541;28;20518;-56
2021/12/25 06:31:39;;;;;;;1.55;0.50;;;3.90;99.90;;;;;;10280518;28;20042;-58
2021/12/25 06:36:41;;;;;;;2.20;0.88;;;3.90;99.90;;;;;;10290154;28;20215;-57
2021/12/25 06:41:44;;;;;;;1.95;0.60;;;3.80;99.90;;;;;;10281304;28;20038;-57
2021/12/25 06:46:46;;;;;;;1.23;0.52;;;3.80;99.90;;;;;;10289215;28;20425;-57
2021/12/25 06:51:50;;;;;;;1.50;0.65;;;3.80;99.90;;;;;;10284624;28;20056;-57
2021/12/25 06:56:51;;;;;;;1.85;0.73;;;3.70;99.90;;;;;;10286344;28;20481;-58
2021/12/25 07:01:53;;;;;;;1.88;0.85;;;3.70;99.90;;;;;;10287299;28;20054;-57
2021/12/25 07:06:55;;;;;;;3.45;0.88;;;3.70;99.90;;;;;;10286659;28;20046;-58
2021/12/25 07:11:57;;;;;;;2.67;0.85;;;3.60;99.90;;;;;;10286569;28;20511;-59
2021/12/25 07:16:58;;;;;;;2.58;1.00;;;3.50;99.90;;;;;;10269238;28;20051;-58
2021/12/25 07:22:00;;;;;;;2.42;1.45;;;3.50;99.90;;;;;;10288719;28;20105;-59
2021/12/25 07:27:05;;;;;;;2.70;1.00;;;3.50;99.90;;;;;;10287301;28;20501;-60
2021/12/25 07:32:07;;;;;;;4.07;1.42;;;3.40;99.90;;;;;;10285817;28;20116;-60
2021/12/25 07:37:08;;;;;;;2.97;1.00;;;3.40;99.90;;;;;;10278264;28;20054;-60
2021/12/25 07:42:11;;;;;;;1.80;0.82;;;3.30;99.90;;;;;;10287208;28;20570;-61
2021/12/25 07:47:14;;;;;;;2.42;1.00;;;3.30;99.90;;;;;;10282180;28;20054;-59
2021/12/25 07:52:16;;;;;;;2.85;1.08;;;3.30;99.90;;;;;;10290603;28;20117;-60
2021/12/25 07:57:18;;;;;;;2.38;0.93;;;3.30;99.90;;;;;;10289113;28;20497;-62
2021/12/25 08:02:20;;;;;;;2.75;0.88;;;3.30;99.90;;;;;;10283442;28;20102;-62
2021/12/25 08:07:22;;;;;;;1.90;0.70;;;3.20;99.90;;;;;;10268811;28;20038;-60
2021/12/25 08:12:23;;;;;;;3.65;1.15;;;3.20;99.90;;;;;;10284494;28;20587;-61
2021/12/25 08:17:25;;;;;;;3.50;0.82;;;3.10;99.90;;;;;;10287610;28;20133;-61
2021/12/25 08:22:26;;;;;;;2.42;1.08;;;3.10;99.90;;;;;;10286188;28;20476;-61
2021/12/25 08:27:28;;;;;;;1.83;0.85;;;3.20;99.90;;;;;;10284712;28;20459;-60
2021/12/25 08:32:30;;;;;;;2.17;0.98;;;3.10;99.90;;;;;;10284572;28;20785;-59
2021/12/25 08:37:32;;;;;;;3.65;1.33;;;3.00;99.90;;;;;;10288354;28;20077;-60
2021/12/25 08:42:34;;;;;;;3.17;0.77;;;2.90;99.90;;;;;;10291447;28;20172;-59
2021/12/25 08:47:37;;;;;;;3.47;0.82;;;2.80;99.90;;;;;;10291318;28;20046;-60
2021/12/25 08:52:38;;;;;;;2.47;1.08;;;2.80;99.90;;;;;;10289545;28;20071;-60
2021/12/25 08:57:40;;;;;;;2.78;1.05;;;2.70;99.90;;;;;;10293187;28;20497;-62
2021/12/25 09:02:42;;;;;;;5.18;1.30;;;2.60;99.90;;;;;;10291467;28;20093;-60
2021/12/25 09:07:44;;;;;;;1.23;0.70;;;2.60;99.90;;;;;;10292635;28;20492;-62
2021/12/25 09:12:46;;;;;;;1.38;0.60;;;2.50;99.90;;;;;;10291916;28;20114;-62
2021/12/25 09:17:48;;;;;;;2.35;0.80;;;2.50;99.90;;;;;;10291608;28;20562;-60
2021/12/25 09:22:50;;;;;;;1.08;0.40;;;2.50;99.90;;;;;;10289553;28;20109;-60
2021/12/25 09:27:52;;;;;;;1.83;0.60;;;2.50;99.90;;;;;;10291632;28;20496;-60
2021/12/25 09:32:54;;;;;;;1.95;0.85;;;2.40;99.90;;;;;;10293621;28;20716;-60
2021/12/25 09:37:56;;;;;;;2.13;0.60;;;2.40;99.90;;;;;;10293625;28;20141;-60
2021/12/25 09:42:57;;;;;;;1.88;0.60;;;2.40;99.90;;;;;;10292687;28;20055;-61
2021/12/25 09:47:59;;;;;;;1.13;0.40;;;2.40;99.90;;;;;;10287509;28;20047;-60
2021/12/25 09:53:05;;;;;;;0.77;0.50;;;2.50;99.90;;;;;;10288987;28;20102;-61
2021/12/25 09:58:07;;;;;;;2.30;0.65;;;2.40;99.90;;;;;;10291168;28;20133;-61
2021/12/25 10:03:09;;;;;;;1.80;0.60;;;2.30;99.90;;;;;;10289926;28;20054;-62
2021/12/25 10:08:12;;;;;;;2.38;1.00;;;2.30;99.90;;;;;;10289011;28;20055;-59
2021/12/25 10:13:22;;;;;;;3.28;0.60;;;2.20;99.90;;;;;;10291070;28;20144;-60
2021/12/25 10:18:33;;;;;;;2.45;0.75;;;2.20;99.90;;;;;;10292030;28;20058;-60
2021/12/25 10:23:36;;;;;;;1.23;0.60;;;2.10;99.90;;;;;;10291492;28;20081;-60
2021/12/25 10:28:41;;;;;;;2.50;0.63;;;2.10;99.90;;;;;;10285739;28;20140;-61
2021/12/25 10:33:53;;;;;;;1.25;0.60;;;2.00;99.90;;;;;;10272242;28;20078;-59
2021/12/25 10:39:00;;;;;;;1.58;0.70;;;1.90;99.90;;;;;;10288873;28;20100;-60
2021/12/25 10:44:18;;;;;;;2.75;1.05;;;2.00;99.90;;;;;;10290854;28;20125;-60
2021/12/25 10:49:22;;;;;;;1.92;0.70;;;1.90;99.90;;;;;;10285239;28;20054;-59
2021/12/25 10:54:40;;;;;;;1.63;0.55;;;1.90;99.90;;;;;;10291583;28;20081;-60
2021/12/25 10:59:47;;;;;;;1.60;0.85;;;1.80;99.90;;;;;;10286162;28;20137;-59
2021/12/25 11:04:48;;;;;;;1.67;0.90;;;1.80;99.90;;;;;;10287736;28;20050;-60
2021/12/25 11:10:05;;;;;;;2.75;0.80;;;1.60;99.90;;;;;;10286494;28;20132;-61
2021/12/25 11:15:22;;;;;;;1.93;1.00;;;1.50;99.90;;;;;;10283480;28;20128;-60
2021/12/25 11:20:37;;;;;;;2.25;0.70;;;1.40;99.90;;;;;;10288537;28;20133;-60
2021/12/25 11:25:40;;;;;;;1.33;0.75;;;1.40;99.90;;;;;;10289227;28;20050;-60
2021/12/25 11:30:46;;;;;;;1.90;0.63;;;1.40;99.90;;;;;;10291581;28;20481;-59
2021/12/25 11:35:47;;;;;;;0.63;0.43;;;1.20;99.90;;;;;;10289125;28;20047;-60
2021/12/25 11:40:53;;;;;;;1.05;0.80;;;1.20;99.90;;;;;;10285107;28;20078;-61
2021/12/25 11:45:55;;;;;;;2.03;0.70;;;1.30;99.90;;;;;;10286806;28;20129;-59
2021/12/25 11:50:57;;;;;;;2.67;1.00;;;1.20;99.90;;;;;;10280427;28;20043;-60
2021/12/25 12:01:19;;;;;;;2.03;0.95;;;1.10;99.90;;;;;;10279313;28;20074;-59
2021/12/25 12:06:44;;;;;;;2.33;1.33;;;1.20;99.90;;;;;;10291041;28;20145;-59
2021/12/25 12:11:49;;;;;;;1.60;0.70;;;1.20;99.90;;;;;;10286194;28;20497;-59
2021/12/25 12:17:18;;;;;;;2.28;1.13;;;1.10;99.90;;;;;;10281893;28;20969;-60
2021/12/25 12:22:28;;;;;;;4.63;0.82;;;1.10;99.90;;;;;;10276997;28;20082;-60
2021/12/25 12:27:34;;;;;;;1.25;0.70;;;1.10;99.90;;;;;;10279362;28;20062;-60
2021/12/25 12:32:45;;;;;;;2.60;0.98;;;1.10;99.90;;;;;;10283625;28;20133;-59
2021/12/25 12:37:47;;;;;;;2.95;0.80;;;1.10;99.90;;;;;;10286149;28;20062;-59
2021/12/25 12:42:53;;;;;;;2.75;0.90;;;1.10;99.90;;;;;;10286832;28;20125;-59
2021/12/25 12:48:21;;;;;;;1.48;0.70;;;1.10;99.90;;;;;;10286418;28;20039;-59
2021/12/25 12:53:24;;;;;;;;;;;1.10;99.90;;;;;;10289499;28;20446;-60
2021/12/25 12:58:27;;;;;;;1.35;0.80;;;1.00;99.90;;;;;;10289134;28;19977;-61
2021/12/25 13:03:29;;;;;;;1.88;0.70;;;1.00;99.90;;;;;;10283512;28;20078;-61
2021/12/25 13:08:35;;;;;;;2.00;0.73;;;1.00;99.90;;;;;;10276874;28;20079;-59
2021/12/25 13:13:46;;;;;;;2.60;1.17;;;0.90;99.90;;;;;;10279760;28;20477;-59
2021/12/25 13:18:50;;;;;;;1.75;0.70;;;0.90;99.90;;;;;;10284306;28;20050;-61
2021/12/25 13:23:56;;;;;;;3.35;0.80;;;0.80;99.90;;;;;;10277972;28;20394;-59
2021/12/25 13:29:00;;;;;;;1.80;0.68;;;0.80;99.90;;;;;;10289658;28;20082;-59
2021/12/25 13:34:13;;;;;;;0.90;0.38;;;0.70;99.90;;;;;;10288087;28;20130;-59
2021/12/25 13:39:18;;;;;;;2.17;0.82;;;0.70;99.90;;;;;;10288150;28;20235;-60
2021/12/25 13:44:27;;;;;;;1.33;0.68;;;0.60;99.90;;;;;;10283246;28;20078;-60
2021/12/25 13:49:36;;;;;;;1.52;0.60;;;0.50;99.90;;;;;;10287440;28;20282;-61
2021/12/25 13:54:42;;;;;;;1.58;0.80;;;0.50;99.90;;;;;;10275818;28;20042;-59
2021/12/25 13:59:51;;;;;;;1.10;0.80;;;0.50;99.90;;;;;;10289008;28;20516;-60
2021/12/25 14:04:55;;;;;;;2.97;0.90;;;0.60;99.90;;;;;;10287130;28;20104;-59
2021/12/25 14:10:00;;;;;;;1.63;0.80;;;0.60;99.90;;;;;;10289483;28;20129;-60
2021/12/25 14:15:04;;;;;;;1.65;0.70;;;0.60;99.90;;;;;;10290353;28;20054;-60
2021/12/25 14:20:10;;;;;;;1.50;0.50;;;0.60;99.90;;;;;;10290333;28;20137;-60
2021/12/25 14:25:24;;;;;;;1.98;1.15;;;0.50;99.90;;;;;;10283737;28;20046;-60
2021/12/25 14:30:25;;;;;;;1.67;0.98;;;0.50;99.90;;;;;;10286578;28;20117;-60
2021/12/25 14:35:27;;;;;;;2.50;1.10;;;0.50;99.90;;;;;;10285867;28;20516;-60
2021/12/25 14:40:34;;;;;;;3.38;1.10;;;0.50;99.90;;;;;;10270308;28;20073;-60
2021/12/25 14:45:45;;;;;;;2.60;1.27;;;0.40;99.90;;;;;;10285018;28;20502;-61
2021/12/25 14:50:53;;;;;;;1.45;0.98;;;0.40;99.90;;;;;;10286322;28;20043;-60
2021/12/25 14:56:01;;;;;;;2.28;1.13;;;0.40;99.90;;;;;;10286913;28;20122;-60
2021/12/25 15:01:11;;;;;;;1.35;0.80;;;0.30;99.90;;;;;;10288322;28;20409;-60
2021/12/25 15:06:19;;;;;;;3.72;1.10;;;0.30;99.90;;;;;;10285627;28;20070;-59
2021/12/25 15:11:21;;;;;;;2.80;1.02;;;0.30;99.90;;;;;;10279999;28;20450;-59
2021/12/25 15:16:46;;;;;;;1.88;0.88;;;0.30;99.90;;;;;;10285287;28;20537;-59
2021/12/25 15:21:48;;;;;;;2.40;1.00;;;0.30;99.90;;;;;;10287421;28;20057;-60
2021/12/25 15:26:56;;;;;;;3.05;0.70;;;0.30;99.90;;;;;;10282987;28;20116;-60
2021/12/25 15:32:01;;;;;;;5.38;1.23;;;0.30;99.90;;;;;;10283861;28;20445;-59
2021/12/25 15:37:24;;;;;;;6.78;0.80;;;0.40;99.90;;;;;;10285879;28;20686;-60
2021/12/25 15:42:26;;;;;;;2.70;1.10;;;0.40;99.90;;;;;;10288744;28;20073;-61
2021/12/25 15:47:30;;;;;;;2.58;1.08;;;0.40;99.90;;;;;;10272449;28;20077;-59
2021/12/25 15:52:32;;;;;;;3.08;0.98;;;0.40;99.90;;;;;;10282571;28;21103;-61
2021/12/25 15:57:35;;;;;;;5.40;1.40;;;0.30;99.90;;;;;;10288201;28;20046;-60
2021/12/25 16:02:37;;;;;;;2.45;1.00;;;0.60;99.90;;;;;;10280111;28;20453;-60
2021/12/25 16:07:40;;;;;;;4.18;1.10;;;0.40;99.90;;;;;;10286445;28;20766;-60
2021/12/25 16:12:42;;;;;;;1.80;0.82;;;0.50;99.90;;;;;;10281632;28;20050;-59
2021/12/25 16:17:44;;;;;;;3.20;1.00;;;0.50;99.90;;;;;;10286857;28;20050;-60
2021/12/25 16:22:46;;;;;;;1.60;1.15;;;0.50;99.90;;;;;;10291895;28;20042;-60
2021/12/25 16:27:47;;;;;;;3.03;1.40;;;0.50;99.90;;;;;;10285754;28;20062;-60
2021/12/25 16:32:49;;;;;;;4.03;2.10;;;0.60;99.90;;;;;;10286274;28;20054;-61
2021/12/25 16:37:51;;;;;;;3.08;1.10;;;0.50;99.90;;;;;;10284386;28;20073;-60
2021/12/25 16:42:53;;;;;;;1.88;1.20;;;0.50;99.90;;;;;;10283273;28;20058;-60
2021/12/25 16:47:56;;;;;;;2.90;1.60;;;0.50;99.90;;;;;;10284759;28;20509;-60
2021/12/25 16:53:04;;;;;;;2.10;0.90;;;0.50;99.90;;;;;;10282581;28;20398;-60
2021/12/25 16:58:06;;;;;;;4.35;1.65;;;0.50;99.90;;;;;;10284350;28;20167;-59
2021/12/25 17:03:09;;;;;;;3.75;1.42;;;0.50;99.90;;;;;;10284991;28;20590;-60
2021/12/25 17:08:12;;;;;;;4.47;1.65;;;0.50;99.90;;;;;;10276058;28;20054;-60
2021/12/25 17:13:16;;;;;;;3.80;1.90;;;0.50;99.90;;;;;;10287427;28;20147;-60
2021/12/25 17:18:18;;;;;;;1.73;1.10;;;0.40;99.90;;;;;;10289362;28;20061;-63
2021/12/25 17:23:23;;;;;;;4.53;2.03;;;0.50;99.90;;;;;;10290724;28;20050;-61
2021/12/25 17:28:25;;;;;;;4.18;1.83;;;0.50;99.90;;;;;;10292104;28;20074;-60
2021/12/25 17:33:29;;;;;;;3.03;1.42;;;0.50;99.90;;;;;;10290618;28;20054;-60
2021/12/25 17:38:38;;;;;;;2.03;1.15;;;0.50;99.90;;;;;;10287656;28;20141;-61
2021/12/25 17:43:40;;;;;;;2.35;1.00;;;0.60;99.90;;;;;;10289323;28;20142;-61
2021/12/25 17:48:43;;;;;;;4.78;1.30;;;0.50;99.90;;;;;;10288981;28;20046;-60
2021/12/25 17:53:44;;;;;;;1.48;1.10;;;0.50;99.90;;;;;;10294181;28;20109;-60
2021/12/25 17:58:46;;;;;;;3.08;1.85;;;0.60;99.90;;;;;;10286155;28;20101;-60
2021/12/25 18:03:48;;;;;;;3.15;1.40;;;0.60;99.90;;;;;;10288609;28;20560;-61
2021/12/25 18:08:54;;;;;;;2.50;1.30;;;0.60;99.90;;;;;;10294845;28;20134;-61
2021/12/25 18:13:56;;;;;;;3.17;2.33;;;0.60;99.90;;;;;;10284924;28;20454;-61
2021/12/25 18:18:59;;;;;;;6.60;2.42;;;0.60;99.90;;;;;;10289809;28;20088;-60
2021/12/25 18:24:02;;;;;;;3.97;1.88;;;0.70;99.90;;;;;;10291410;28;20061;-60
2021/12/25 18:29:04;;;;;;;6.13;1.83;;;0.70;99.90;;;;;;10288056;28;20161;-60
2021/12/25 18:34:05;;;;;;;3.28;1.60;;;0.70;99.90;;;;;;10289245;28;20054;-60
2021/12/25 18:39:07;;;;;;;4.07;1.73;;;0.70;99.90;;;;;;10286631;28;20054;-61
2021/12/25 18:44:09;;;;;;;4.95;2.05;;;0.70;99.90;;;;;;10286632;28;20062;-63
2021/12/25 18:49:11;;;;;;;4.07;1.80;;;0.70;99.90;;;;;;10285320;28;20054;-61
2021/12/25 18:54:14;;;;;;;4.18;1.60;;;0.70;99.90;;;;;;10290903;28;20054;-61
2021/12/25 18:59:15;;;;;;;5.57;1.90;;;0.70;99.90;;;;;;10290021;28;20509;-60
2021/12/25 19:04:17;;;;;;;3.63;1.67;;;0.70;99.90;;;;;;10281237;28;20057;-62
2021/12/25 19:09:20;;;;;;;4.63;2.17;;;0.70;99.90;;;;;;10284877;28;20054;-61
2021/12/25 19:14:23;;;;;;;3.47;1.90;;;0.70;99.90;;;;;;10285685;28;20047;-61
2021/12/25 19:19:24;;;;;;;4.18;2.22;;;0.70;99.90;;;;;;10289598;28;20157;-61
2021/12/25 19:24:26;;;;;;;4.47;1.63;;;0.70;99.90;;;;;;10286550;28;20104;-61
2021/12/25 19:29:28;;;;;;;4.35;1.63;;;0.60;99.90;;;;;;10283255;28;20125;-61
2021/12/25 19:34:30;;;;;;;4.20;2.28;;;0.60;99.90;;;;;;10285749;28;20828;-60
2021/12/25 19:39:32;;;;;;;5.75;2.25;;;0.60;99.90;;;;;;10285255;28;20505;-61
2021/12/25 19:44:34;;;;;;;4.00;1.80;;;0.60;99.90;;;;;;10285504;28;20133;-60
2021/12/25 19:49:36;;;;;;;5.90;1.85;;;0.60;99.90;;;;;;10281377;28;20057;-60
2021/12/25 19:54:37;;;;;;;4.22;1.83;;;0.60;99.90;;;;;;10285893;28;20529;-60
2021/12/25 19:59:39;;;;;;;5.00;2.20;;;0.60;99.90;;;;;;10282250;28;20563;-60
2021/12/25 20:04:43;;;;;;;6.07;2.70;;;0.60;99.90;;;;;;10282343;28;20054;-61
2021/12/25 20:09:44;;;;;;;2.95;1.70;;;0.60;99.90;;;;;;10284415;28;20074;-61
2021/12/25 20:14:46;;;;;;;4.25;2.15;;;0.60;99.90;;;;;;10284088;28;20121;-60
2021/12/25 20:19:47;;;;;;;4.82;2.17;;;0.60;99.90;;;;;;10285585;28;20144;-61
2021/12/25 20:24:49;;;;;;;6.07;2.75;;;0.60;99.90;;;;;;10283239;28;20050;-60
2021/12/25 20:29:51;;;;;;;6.50;1.88;;;0.50;99.90;;;;;;10283479;28;20062;-60
2021/12/25 20:34:54;;;;;;;8.25;2.30;;;0.50;99.90;;;;;;10285003;28;20081;-60
2021/12/25 20:39:56;;;;;;;4.65;2.13;;;0.60;99.90;;;;;;10288774;28;20082;-60
2021/12/25 20:50:20;;;;;;;3.97;2.08;;;0.50;99.90;;;;;;10289723;28;20549;-60
2021/12/25 20:55:22;;;;;;;5.53;1.98;;;0.50;99.90;;;;;;10297224;28;20070;-60
2021/12/25 21:00:27;;;;;;;5.07;2.03;;;0.60;99.90;;;;;;10281963;28;20050;-60
2021/12/25 21:05:30;;;;;;;3.97;1.90;;;0.60;99.90;;;;;;10288763;28;20523;-60
2021/12/25 21:10:34;;;;;;;4.78;1.77;;;0.60;99.90;;;;;;10290686;28;20054;-60
2021/12/25 21:15:37;;;;;;;5.20;1.85;;;0.60;99.90;;;;;;10292896;28;20283;-62
2021/12/25 21:20:39;;;;;;;5.68;2.35;;;0.60;99.90;;;;;;10294073;28;20184;-62
2021/12/25 21:25:41;;;;;;;6.95;2.47;;;0.60;99.90;;;;;;10293480;28;20077;-62
2021/12/25 21:30:42;;;;;;;6.35;2.55;;;0.50;99.90;;;;;;10294548;28;20129;-62
2021/12/25 21:35:48;;;;;;;6.47;2.40;;;0.60;99.90;;;;;;10290070;28;20057;-63
2021/12/25 21:40:50;;;;;;;4.75;2.03;;;0.50;99.90;;;;;;10291425;28;20113;-63
2021/12/25 21:45:52;;;;;;;5.43;2.47;;;0.50;99.90;;;;;;10288839;28;20104;-62
2021/12/25 21:50:54;;;;;;;6.20;2.42;;;0.50;99.90;;;;;;10293447;28;20116;-62
2021/12/25 21:55:58;;;;;;;7.72;2.72;;;0.60;99.90;;;;;;10291299;28;20133;-61
2021/12/25 22:01:00;;;;;;;4.82;2.45;;;0.40;99.90;;;;;;10291775;28;20065;-62
2021/12/25 22:06:03;;;;;;;8.65;2.80;;;0.50;99.90;;;;;;10295357;28;20150;-62
2021/12/25 22:11:07;;;;;;;5.30;2.10;;;0.40;99.90;;;;;;10286831;28;20129;-62
2021/12/25 22:16:09;;;;;;;5.28;2.60;;;0.40;99.90;;;;;;10290757;28;20176;-62
2021/12/25 22:21:11;;;;;;;11.43;2.92;;;0.40;99.90;;;;;;10283533;28;20046;-62
2021/12/25 22:26:13;;;;;;;5.80;2.83;;;0.40;99.90;;;;;;10286995;28;20054;-62
2021/12/25 22:31:15;;;;;;;4.35;2.00;;;0.40;99.90;;;;;;10285528;28;20078;-62
2021/12/25 22:36:17;;;;;;;7.95;2.13;;;0.40;99.90;;;;;;10282713;28;20054;-62
2021/12/25 22:41:18;;;;;;;3.75;1.60;;;0.40;99.90;;;;;;10288405;28;20078;-62
2021/12/25 22:46:21;;;;;;;4.25;1.98;;;0.40;99.90;;;;;;10286044;28;20458;-62
2021/12/25 22:51:23;;;;;;;5.47;2.13;;;0.40;99.90;;;;;;10287523;28;20658;-62
2021/12/25 22:56:25;;;;;;;6.53;2.08;;;0.40;99.90;;;;;;10286743;28;20145;-62
2021/12/25 23:01:27;;;;;;;5.22;2.38;;;0.40;99.90;;;;;;10289501;28;20398;-63
2021/12/25 23:06:29;;;;;;;6.38;1.95;;;0.40;99.90;;;;;;10289743;28;20079;-62
2021/12/25 23:11:34;;;;;;;6.93;2.60;;;0.40;99.90;;;;;;10294190;28;20532;-62
2021/12/25 23:16:38;;;;;;;4.00;2.25;;;0.40;99.90;;;;;;10289710;28;20503;-63
2021/12/25 23:21:41;;;;;;;5.18;1.73;;;0.50;99.90;;;;;;10289604;28;20109;-62
2021/12/25 23:26:43;;;;;;;5.22;1.92;;;0.50;99.90;;;;;;10287243;28;20509;-62
2021/12/25 23:31:45;;;;;;;5.78;2.17;;;0.40;99.90;;;;;;10290427;28;20054;-63
2021/12/25 23:36:47;;;;;;;4.43;2.28;;;0.40;99.90;;;;;;10282567;28;20101;-62
2021/12/25 23:41:48;;;;;;;5.55;2.50;;;0.40;99.90;;;;;;10286001;28;20109;-62
2021/12/25 23:46:50;;;;;;;4.57;2.47;;;0.40;99.90;;;;;;10267019;28;20421;-63
2021/12/25 23:51:59;;;;;;;5.70;2.22;;;0.40;99.90;;;;;;10285098;28;20808;-62
2021/12/25 23:57:01;;;;;;;5.32;2.58;;;0.50;99.90;;;;;;10290642;28;20128;-62
